createdAt,value
2019-02-10T00:01:56.720Z,53.57
2019-02-10T00:04:27.887Z,51.47
2019-02-10T00:06:58.390Z,57.90
2019-02-10T00:09:28.921Z,60.80
2019-02-10T00:11:59.419Z,61.47
2019-02-10T00:14:29.897Z,60.33
2019-02-10T00:17:00.403Z,58.23
2019-02-10T00:19:32.792Z,60.97
2019-02-10T00:22:03.731Z,59.53
2019-02-10T00:24:34.231Z,55.53
2019-02-10T00:27:05.074Z,53.30
2019-02-10T00:29:35.575Z,50.13
2019-02-10T00:32:06.100Z,50.60
2019-02-10T00:34:36.597Z,48.10
2019-02-10T00:37:07.099Z,49.20
2019-02-10T00:39:37.563Z,56.00
2019-02-10T00:42:08.305Z,52.40
2019-02-10T00:44:38.783Z,51.37
2019-02-10T00:47:09.267Z,53.50
2019-02-10T00:49:39.726Z,56.77
2019-02-10T00:52:10.230Z,56.00
2019-02-10T00:54:40.725Z,54.50
2019-02-10T00:57:11.193Z,54.90
2019-02-10T00:59:41.692Z,57.30
2019-02-10T01:02:12.264Z,56.87
2019-02-10T01:04:42.768Z,52.70
2019-02-10T01:07:13.228Z,53.67
2019-02-10T01:09:43.731Z,56.63
2019-02-10T01:12:14.208Z,58.87
2019-02-10T01:14:44.715Z,56.60
2019-02-10T01:17:15.197Z,53.73
2019-02-10T01:19:45.690Z,57.60
2019-02-10T01:22:16.268Z,55.73
2019-02-10T01:24:46.775Z,51.97
2019-02-10T01:27:17.246Z,54.70
2019-02-10T01:29:47.810Z,53.77
2019-02-10T01:32:18.456Z,56.90
2019-02-10T01:34:48.934Z,54.97
2019-02-10T01:37:19.476Z,53.53
2019-02-10T01:39:50.136Z,53.53
2019-02-10T01:42:20.655Z,50.93
2019-02-10T01:44:51.560Z,55.13
2019-02-10T01:47:22.058Z,51.03
2019-02-10T01:49:52.573Z,53.60
2019-02-10T01:52:23.070Z,53.17
2019-02-10T01:54:53.636Z,50.37
2019-02-10T01:57:24.100Z,53.40
2019-02-10T01:59:54.608Z,53.00
2019-02-10T02:02:26.953Z,50.03
2019-02-10T02:04:58.179Z,50.10
2019-02-10T02:07:28.675Z,52.60
2019-02-10T02:09:59.163Z,51.70
2019-02-10T02:12:29.634Z,51.10
2019-02-10T02:15:00.309Z,51.20
2019-02-10T02:17:30.893Z,47.67
2019-02-10T02:20:01.386Z,51.30
2019-02-10T02:22:31.843Z,49.87
2019-02-10T02:25:02.326Z,50.83
2019-02-10T02:27:32.813Z,50.33
2019-02-10T02:30:03.377Z,49.30
2019-02-10T02:32:33.829Z,48.67
2019-02-10T02:35:04.871Z,49.70
2019-02-10T02:37:35.458Z,49.47
2019-02-10T02:40:09.334Z,46.47
2019-02-10T02:42:41.261Z,49.43
2019-02-10T02:45:14.855Z,47.13
2019-02-10T02:47:47.244Z,48.80
2019-02-10T02:50:17.718Z,47.87
2019-02-10T02:52:48.204Z,47.30
2019-02-10T02:55:18.681Z,45.10
2019-02-10T02:57:49.151Z,46.10
2019-02-10T03:00:19.661Z,48.30
2019-02-10T03:02:50.091Z,44.80
2019-02-10T03:05:24.339Z,47.00
2019-02-10T03:07:54.736Z,45.10
2019-02-10T03:10:25.217Z,46.17
2019-02-10T03:12:55.744Z,46.30
2019-02-10T03:15:26.234Z,47.50
2019-02-10T03:17:56.723Z,46.87
2019-02-10T03:20:29.347Z,44.23
2019-02-10T03:22:59.838Z,43.00
2019-02-10T03:25:31.959Z,44.60
2019-02-10T03:28:02.625Z,45.50
2019-02-10T03:30:33.089Z,46.97
2019-02-10T03:33:03.581Z,47.07
2019-02-10T03:35:34.112Z,46.13
2019-02-10T03:38:04.596Z,47.63
2019-02-10T03:40:35.077Z,46.57
2019-02-10T03:43:05.541Z,44.13
2019-02-10T03:45:36.198Z,45.50
2019-02-10T03:48:06.657Z,43.67
2019-02-10T03:50:38.679Z,43.33
2019-02-10T03:53:09.170Z,47.83
2019-02-10T03:55:39.657Z,45.23
2019-02-10T03:58:10.120Z,45.67
2019-02-10T04:00:42.552Z,46.33
2019-02-10T04:03:13.052Z,45.30
2019-02-10T04:05:44.874Z,47.97
2019-02-10T04:08:15.336Z,46.60
2019-02-10T04:10:45.821Z,46.13
2019-02-10T04:13:16.345Z,48.53
2019-02-10T04:15:47.284Z,49.23
2019-02-10T04:18:17.754Z,45.83
2019-02-10T04:20:48.212Z,47.40
2019-02-10T04:23:18.692Z,45.73
2019-02-10T04:25:49.154Z,47.00
2019-02-10T04:28:19.647Z,46.63
2019-02-10T04:30:51.174Z,47.33
2019-02-10T04:33:21.738Z,43.60
2019-02-10T04:35:52.190Z,47.73
2019-02-10T04:38:26.836Z,46.67
2019-02-10T04:40:57.289Z,46.67
2019-02-10T04:43:27.777Z,46.73
2019-02-10T04:45:58.239Z,47.13
2019-02-10T04:48:28.747Z,48.10
2019-02-10T04:51:00.793Z,47.20
2019-02-10T04:53:31.288Z,46.23
2019-02-10T04:56:14.467Z,47.87
2019-02-10T04:58:44.956Z,48.13
2019-02-10T05:01:17.002Z,48.60
2019-02-10T05:03:50.093Z,46.50
2019-02-10T05:06:20.584Z,46.03
2019-02-10T05:08:51.043Z,48.60
2019-02-10T05:11:22.568Z,46.03
2019-02-10T05:13:53.045Z,48.57
2019-02-10T05:16:23.523Z,46.93
2019-02-10T05:18:54.001Z,46.03
2019-02-10T05:21:26.950Z,48.53
2019-02-10T05:24:03.236Z,46.17
2019-02-10T05:26:29.597Z,45.40
2019-02-10T05:29:00.086Z,45.23
2019-02-10T05:31:30.564Z,43.77
2019-02-10T05:34:01.386Z,47.50
2019-02-10T05:36:31.847Z,43.30
2019-02-10T05:39:02.345Z,47.00
2019-02-10T05:41:32.802Z,46.17
2019-02-10T05:44:03.359Z,43.83
2019-02-10T05:46:34.524Z,47.03
2019-02-10T05:49:05.083Z,45.90
2019-02-10T05:51:35.567Z,46.60
2019-02-10T05:54:06.130Z,47.43
2019-02-10T05:56:36.590Z,47.97
2019-02-10T05:59:07.091Z,46.93
2019-02-10T06:02:07.961Z,45.47
2019-02-10T06:04:44.443Z,45.90
2019-02-10T06:07:18.742Z,46.10
2019-02-10T06:09:49.209Z,47.17
2019-02-10T06:12:19.649Z,45.70
2019-02-10T06:14:50.136Z,48.80
2019-02-10T06:17:20.593Z,43.50
2019-02-10T06:19:51.083Z,45.37
2019-02-10T06:22:21.549Z,47.87
2019-02-10T06:24:52.115Z,46.00
2019-02-10T06:27:23.621Z,47.70
2019-02-10T06:29:54.118Z,49.07
2019-02-10T06:32:24.580Z,50.03
2019-02-10T06:34:55.077Z,47.10
2019-02-10T06:37:25.586Z,48.47
2019-02-10T06:39:56.077Z,50.17
2019-02-10T06:42:26.533Z,48.17
2019-02-10T06:44:57.032Z,46.57
2019-02-10T06:47:27.491Z,49.10
2019-02-10T06:49:57.988Z,48.13
2019-02-10T06:52:28.441Z,50.23
2019-02-10T06:55:01.058Z,48.60
2019-02-10T06:57:31.513Z,51.67
2019-02-10T07:00:06.124Z,53.37
2019-02-10T07:02:58.674Z,49.60
2019-02-10T07:05:29.180Z,50.13
2019-02-10T07:07:59.646Z,49.17
2019-02-10T07:10:30.210Z,51.07
2019-02-10T07:13:00.680Z,50.33
2019-02-10T07:16:26.008Z,47.73
2019-02-10T07:19:43.140Z,53.10
2019-02-10T07:22:35.099Z,48.17
2019-02-10T07:25:16.198Z,50.20
2019-02-10T07:28:07.109Z,50.20
2019-02-10T07:31:01.810Z,47.50
2019-02-10T07:33:49.171Z,49.40
2019-02-10T07:36:24.371Z,49.97
2019-02-10T07:39:16.327Z,48.10
2019-02-10T07:42:17.465Z,48.20
2019-02-10T07:45:18.420Z,47.47
2019-02-10T07:48:02.149Z,47.20
2019-02-10T07:50:49.059Z,52.50
2019-02-10T07:53:24.270Z,51.03
2019-02-10T07:56:19.232Z,52.30
2019-02-10T07:59:11.710Z,51.77
2019-02-10T08:02:07.860Z,49.67
2019-02-10T08:05:20.210Z,51.20
2019-02-10T08:08:10.500Z,50.80
2019-02-10T08:11:20.556Z,49.60
2019-02-10T08:14:22.806Z,50.70
2019-02-10T08:17:00.864Z,47.77
2019-02-10T08:19:49.718Z,47.20
2019-02-10T08:22:54.758Z,49.30
2019-02-10T08:25:45.084Z,45.33
2019-02-10T08:28:38.219Z,50.00
2019-02-10T08:31:32.643Z,48.90
2019-02-10T08:34:30.178Z,49.27
2019-02-10T08:37:14.145Z,49.57
2019-02-10T08:40:17.694Z,49.83
2019-02-10T08:43:14.550Z,67.60
2019-02-10T08:46:01.246Z,50.40
2019-02-10T08:48:57.203Z,47.53
2019-02-10T08:51:43.864Z,48.07
2019-02-10T08:54:14.591Z,43.40
2019-02-10T08:56:45.055Z,47.03
2019-02-10T08:59:15.546Z,45.77
2019-02-10T09:01:46.975Z,48.10
2019-02-10T09:04:17.454Z,50.30
2019-02-10T09:06:47.911Z,50.10
2019-02-10T09:09:18.400Z,49.57
2019-02-10T09:11:48.858Z,47.03
2019-02-10T09:14:19.347Z,50.73
2019-02-10T09:16:49.807Z,46.10
2019-02-10T09:19:20.574Z,46.17
2019-02-10T09:21:51.248Z,45.33
2019-02-10T09:24:21.806Z,44.47
2019-02-10T09:26:52.296Z,46.53
2019-02-10T09:29:22.762Z,48.33
2019-02-10T09:31:53.259Z,45.30
2019-02-10T09:34:23.717Z,47.50
2019-02-10T09:36:54.216Z,47.27
2019-02-10T09:39:24.672Z,45.73
2019-02-10T09:41:55.173Z,48.27
2019-02-10T09:44:25.661Z,46.20
2019-02-10T09:46:56.119Z,47.43
2019-02-10T09:49:26.617Z,40.37
2019-02-10T09:51:57.126Z,40.77
2019-02-10T09:54:27.583Z,41.67
2019-02-10T09:56:58.072Z,35.83
2019-02-10T09:59:28.564Z,35.40
2019-02-10T10:01:59.017Z,30.43
2019-02-10T10:04:29.524Z,32.23
2019-02-10T10:06:59.991Z,32.53
2019-02-10T10:09:30.473Z,36.20
2019-02-10T10:12:00.986Z,33.50
2019-02-10T10:14:31.449Z,32.83
2019-02-10T10:17:01.929Z,36.13
2019-02-10T10:19:32.389Z,35.97
2019-02-10T10:22:02.900Z,44.33
2019-02-10T10:24:35.422Z,56.17
2019-02-10T10:27:05.612Z,41.00
2019-02-10T10:29:36.079Z,35.37
2019-02-10T10:32:06.578Z,30.10
2019-02-10T10:34:37.054Z,33.73
2019-02-10T10:37:07.536Z,32.53
2019-02-10T10:39:37.996Z,32.93
2019-02-10T10:42:08.510Z,30.07
2019-02-10T10:44:39.004Z,32.37
2019-02-10T10:47:09.465Z,31.80
2019-02-10T10:49:39.979Z,35.00
2019-02-10T10:52:10.431Z,33.10
2019-02-10T10:54:42.749Z,34.57
2019-02-10T10:57:13.068Z,32.93
2019-02-10T10:59:43.563Z,35.00
2019-02-10T11:02:14.895Z,36.57
2019-02-10T11:04:45.392Z,35.17
2019-02-10T11:07:15.857Z,33.20
2019-02-10T11:09:46.373Z,30.97
2019-02-10T11:12:16.865Z,32.57
2019-02-10T11:14:47.360Z,31.33
2019-02-10T11:17:17.824Z,32.50
2019-02-10T11:19:48.377Z,52.37
2019-02-10T11:22:18.794Z,35.97
2019-02-10T11:24:49.288Z,32.13
2019-02-10T11:27:19.747Z,32.37
2019-02-10T11:29:50.244Z,38.43
2019-02-10T11:32:20.783Z,31.13
2019-02-10T11:34:51.267Z,29.17
2019-02-10T11:37:26.776Z,27.70
2019-02-10T11:39:53.942Z,27.50
2019-02-10T11:42:26.094Z,28.07
2019-02-10T11:44:56.567Z,29.17
2019-02-10T11:47:27.133Z,30.70
2019-02-10T11:49:57.598Z,28.77
2019-02-10T11:52:28.084Z,31.03
2019-02-10T11:54:58.589Z,31.27
2019-02-10T11:57:29.910Z,28.43
2019-02-10T12:00:00.397Z,30.90
2019-02-10T12:02:37.922Z,27.57
2019-02-10T12:05:05.690Z,26.77
2019-02-10T12:07:37.734Z,27.67
2019-02-10T12:10:16.199Z,30.43
2019-02-10T12:12:47.804Z,25.50
2019-02-10T12:15:18.316Z,28.07
2019-02-10T12:17:48.795Z,28.60
2019-02-10T12:20:19.291Z,26.43
2019-02-10T12:22:50.510Z,27.00
2019-02-10T12:25:21.241Z,25.30
2019-02-10T12:27:51.680Z,27.00
2019-02-10T12:30:22.193Z,24.93
2019-02-10T12:32:52.650Z,24.50
2019-02-10T12:35:23.145Z,28.80
2019-02-10T12:37:53.610Z,28.03
2019-02-10T12:40:24.110Z,26.10
2019-02-10T12:42:54.586Z,24.00
2019-02-10T12:45:25.072Z,24.93
2019-02-10T12:47:55.531Z,24.77
2019-02-10T12:50:26.017Z,27.20
2019-02-10T12:52:56.486Z,30.57
2019-02-10T12:55:27.334Z,53.37
2019-02-10T12:57:57.935Z,36.30
2019-02-10T13:00:28.424Z,27.83
2019-02-10T13:02:58.930Z,29.23
2019-02-10T13:05:30.950Z,27.60
2019-02-10T13:08:01.530Z,34.33
2019-02-10T13:10:31.989Z,36.57
2019-02-10T13:13:02.482Z,29.07
2019-02-10T13:15:32.940Z,31.00
2019-02-10T13:18:03.504Z,28.30
2019-02-10T13:20:33.973Z,27.43
2019-02-10T13:23:04.456Z,28.87
2019-02-10T13:25:34.931Z,28.63
2019-02-10T13:28:05.727Z,26.50
2019-02-10T13:30:37.237Z,25.37
2019-02-10T13:33:07.867Z,28.90
2019-02-10T13:35:38.421Z,26.57
2019-02-10T13:38:08.879Z,29.00
2019-02-10T13:40:39.376Z,27.53
2019-02-10T13:43:09.928Z,29.00
2019-02-10T13:45:40.384Z,27.57
2019-02-10T13:48:10.877Z,28.33
2019-02-10T13:50:41.352Z,27.40
2019-02-10T13:53:11.914Z,27.63
2019-02-10T13:55:42.425Z,27.80
2019-02-10T13:58:12.936Z,28.83
2019-02-10T14:00:43.408Z,25.60
2019-02-10T14:03:13.918Z,27.90
2019-02-10T14:05:44.397Z,24.73
2019-02-10T14:08:14.898Z,29.00
2019-02-10T14:10:45.405Z,25.73
2019-02-10T14:13:15.856Z,27.97
2019-02-10T14:15:48.083Z,28.57
2019-02-10T14:18:18.565Z,28.50
2019-02-10T14:20:50.581Z,28.70
2019-02-10T14:23:22.985Z,29.07
2019-02-10T14:25:53.431Z,26.83
2019-02-10T14:28:23.920Z,27.97
2019-02-10T14:30:54.423Z,29.83
2019-02-10T14:33:24.928Z,27.70
2019-02-10T14:35:55.427Z,30.93
2019-02-10T14:38:25.881Z,56.80
2019-02-10T14:40:56.364Z,37.77
2019-02-10T14:43:26.835Z,30.00
2019-02-10T14:45:57.403Z,30.57
2019-02-10T14:48:27.891Z,30.33
2019-02-10T14:50:58.389Z,28.53
2019-02-10T14:53:28.894Z,29.57
2019-02-10T14:55:59.365Z,28.43
2019-02-10T14:58:29.859Z,30.03
2019-02-10T15:01:00.365Z,29.63
2019-02-10T15:03:30.819Z,29.60
2019-02-10T15:06:01.328Z,28.47
2019-02-10T15:08:31.820Z,30.20
2019-02-10T15:11:02.288Z,30.97
2019-02-10T15:13:32.784Z,28.57
2019-02-10T15:16:03.243Z,31.30
2019-02-10T15:18:33.759Z,32.07
2019-02-10T15:21:04.243Z,32.47
2019-02-10T15:23:34.823Z,30.00
2019-02-10T15:26:05.271Z,31.70
2019-02-10T15:28:35.778Z,33.37
2019-02-10T15:31:06.303Z,31.50
2019-02-10T15:33:36.797Z,30.23
2019-02-10T15:36:07.321Z,32.73
2019-02-10T15:38:37.777Z,32.53
2019-02-10T15:41:08.280Z,31.40
2019-02-10T15:43:38.747Z,30.03
2019-02-10T15:46:09.248Z,32.70
2019-02-10T15:48:39.747Z,33.37
2019-02-10T15:51:10.208Z,35.50
2019-02-10T15:53:40.720Z,35.80
2019-02-10T15:56:11.183Z,34.70
2019-02-10T15:58:42.538Z,35.30
2019-02-10T16:01:13.075Z,33.47
2019-02-10T16:03:49.628Z,32.13
2019-02-10T16:06:20.757Z,34.27
2019-02-10T16:08:52.659Z,32.30
2019-02-10T16:11:23.213Z,37.67
2019-02-10T16:13:53.724Z,37.87
2019-02-10T16:16:24.294Z,37.17
2019-02-10T16:18:54.753Z,42.57
2019-02-10T16:21:25.246Z,41.60
2019-02-10T16:23:55.702Z,45.00
2019-02-10T16:26:26.269Z,48.23
2019-02-10T16:28:56.731Z,44.80
2019-02-10T16:31:28.861Z,43.77
2019-02-10T16:33:59.366Z,40.93
2019-02-10T16:36:31.475Z,40.43
2019-02-10T16:39:02.045Z,38.17
2019-02-10T16:41:32.524Z,40.30
2019-02-10T16:44:06.848Z,40.67
2019-02-10T16:46:37.309Z,45.43
2019-02-10T16:49:07.808Z,46.30
2019-02-10T16:51:38.267Z,51.97
2019-02-10T16:54:09.757Z,48.80
2019-02-10T16:56:40.296Z,48.50
2019-02-10T16:59:11.471Z,49.63
2019-02-10T17:01:41.937Z,46.10
2019-02-10T17:04:14.953Z,52.60
2019-02-10T17:06:45.493Z,51.43
2019-02-10T17:09:16.615Z,48.47
2019-02-10T17:11:47.116Z,48.00
2019-02-10T17:14:17.622Z,51.70
2019-02-10T17:16:48.076Z,51.50
2019-02-10T17:19:18.608Z,56.77
2019-02-10T17:21:49.048Z,56.50
2019-02-10T17:24:19.533Z,55.87
2019-02-10T17:26:50.103Z,53.73
2019-02-10T17:29:20.593Z,53.97
2019-02-10T17:31:51.082Z,57.30
2019-02-10T17:34:24.382Z,63.30
2019-02-10T17:36:54.862Z,60.30
2019-02-10T17:39:25.377Z,63.60
2019-02-10T17:41:56.243Z,63.67
2019-02-10T17:44:26.747Z,62.37
2019-02-10T17:46:57.214Z,62.50
2019-02-10T17:49:27.707Z,63.80
2019-02-10T17:51:58.174Z,67.47
2019-02-10T17:54:29.344Z,66.80
2019-02-10T17:56:59.837Z,65.27
2019-02-10T17:59:30.342Z,66.73
2019-02-10T18:02:00.891Z,71.87
2019-02-10T18:04:37.328Z,68.57
2019-02-10T18:07:03.544Z,69.93
2019-02-10T18:09:34.042Z,68.63
2019-02-10T18:12:04.555Z,64.73
2019-02-10T18:14:36.671Z,62.90
2019-02-10T18:17:08.788Z,66.50
2019-02-10T18:19:46.699Z,65.17
2019-02-10T18:22:26.114Z,66.40
2019-02-10T18:25:14.453Z,70.37
2019-02-10T18:27:46.600Z,67.17
2019-02-10T18:30:19.138Z,66.37
2019-02-10T18:33:03.318Z,68.33
2019-02-10T18:35:42.052Z,103.50
2019-02-10T18:38:16.701Z,66.73
2019-02-10T18:40:51.551Z,68.10
2019-02-10T18:43:36.934Z,67.43
2019-02-10T18:46:25.165Z,68.63
2019-02-10T18:49:03.267Z,72.20
2019-02-10T18:51:35.362Z,77.43
2019-02-10T18:54:07.589Z,81.07
2019-02-10T18:56:42.409Z,76.83
2019-02-10T18:59:20.071Z,74.50
2019-02-10T19:02:08.481Z,74.70
2019-02-10T19:04:58.396Z,71.27
2019-02-10T19:07:33.893Z,70.33
2019-02-10T19:10:07.368Z,68.70
2019-02-10T19:12:48.762Z,70.43
2019-02-10T19:15:37.233Z,66.10
2019-02-10T19:18:12.332Z,65.53
2019-02-10T19:21:01.715Z,70.50
2019-02-10T19:23:38.224Z,65.70
2019-02-10T19:26:10.339Z,63.67
2019-02-10T19:28:42.485Z,62.87
2019-02-10T19:31:17.223Z,62.10
2019-02-10T19:33:49.375Z,62.67
2019-02-10T19:36:28.332Z,54.37
2019-02-10T19:39:04.676Z,62.67
2019-02-10T19:41:38.547Z,59.67
2019-02-10T19:44:17.384Z,56.47
2019-02-10T19:46:51.603Z,57.53
2019-02-10T19:49:32.454Z,58.00
2019-02-10T19:52:22.347Z,59.83
2019-02-10T19:54:55.141Z,54.70
2019-02-10T19:57:30.316Z,54.70
2019-02-10T20:00:06.453Z,56.90
2019-02-10T20:02:57.158Z,55.23
2019-02-10T20:05:39.334Z,52.40
2019-02-10T20:08:10.360Z,54.77
2019-02-10T20:10:40.601Z,51.97
2019-02-10T20:13:11.358Z,54.67
2019-02-10T20:15:50.578Z,54.37
2019-02-10T20:18:38.695Z,52.17
2019-02-10T20:21:13.432Z,52.60
2019-02-10T20:23:58.174Z,50.80
2019-02-10T20:26:32.981Z,52.70
2019-02-10T20:32:05.301Z,53.67
2019-02-10T20:34:37.449Z,58.37
2019-02-10T20:37:16.849Z,59.33
2019-02-10T20:39:49.041Z,56.83
2019-02-10T20:42:21.157Z,57.13
2019-02-10T20:45:08.323Z,55.90
2019-02-10T20:47:46.325Z,59.20
2019-02-10T20:50:21.398Z,56.30
2019-02-10T20:52:56.380Z,56.50
2019-02-10T20:55:28.500Z,56.87
2019-02-10T20:58:00.653Z,61.33
2019-02-10T21:00:48.539Z,57.67
2019-02-10T21:03:26.735Z,57.03
2019-02-10T21:05:58.837Z,54.60
2019-02-10T21:08:36.701Z,55.43
2019-02-10T21:11:20.814Z,52.57
2019-02-10T21:13:51.062Z,54.00
2019-02-10T21:16:23.178Z,52.13
2019-02-10T21:19:02.331Z,52.60
2019-02-10T21:21:43.420Z,51.03
2019-02-10T21:24:21.038Z,52.20
2019-02-10T21:26:53.140Z,52.70
2019-02-10T21:29:28.368Z,53.00
2019-02-10T21:32:01.814Z,52.37
2019-02-10T21:34:35.548Z,52.57
2019-02-10T21:37:10.341Z,51.70
2019-02-10T21:39:48.233Z,52.20
2019-02-10T21:42:28.925Z,49.70
2019-02-10T21:45:18.284Z,50.83
2019-02-10T21:47:50.670Z,50.17
2019-02-10T21:50:21.167Z,49.73
2019-02-10T21:52:51.633Z,49.50
2019-02-10T21:55:22.137Z,55.53
2019-02-10T21:57:52.589Z,51.17
2019-02-10T22:00:23.076Z,51.93
2019-02-10T22:02:53.539Z,49.63
2019-02-10T22:05:24.033Z,46.63
2019-02-10T22:07:54.505Z,49.20
2019-02-10T22:10:25.004Z,47.73
2019-02-10T22:12:55.452Z,46.87
2019-02-10T22:15:25.955Z,46.17
2019-02-10T22:17:56.490Z,46.97
2019-02-10T22:20:26.992Z,47.60
2019-02-10T22:22:57.453Z,49.90
2019-02-10T22:25:27.953Z,46.30
2019-02-10T22:27:58.413Z,47.57
2019-02-10T22:30:28.959Z,51.00
2019-02-10T22:32:59.444Z,48.13
2019-02-10T22:35:29.899Z,48.07
2019-02-10T22:38:03.863Z,46.80
2019-02-10T22:40:34.325Z,46.47
2019-02-10T22:43:04.855Z,46.93
2019-02-10T22:45:35.334Z,47.40
2019-02-10T22:48:05.797Z,48.60
2019-02-10T22:50:36.282Z,49.37
2019-02-10T22:53:06.741Z,46.90
2019-02-10T22:55:37.226Z,48.87
2019-02-10T22:58:08.256Z,48.40
2019-02-10T23:00:50.846Z,48.50
2019-02-10T23:03:21.444Z,47.63
2019-02-10T23:05:51.933Z,47.30
2019-02-10T23:08:22.409Z,48.83
2019-02-10T23:10:52.880Z,48.13
2019-02-10T23:13:23.363Z,45.23
2019-02-10T23:15:53.829Z,46.90
2019-02-10T23:18:24.376Z,48.03
2019-02-10T23:20:54.837Z,47.80
2019-02-10T23:23:26.664Z,43.23
2019-02-10T23:25:57.123Z,47.80
2019-02-10T23:28:27.609Z,47.60
2019-02-10T23:30:58.079Z,43.30
2019-02-10T23:33:28.570Z,49.10
2019-02-10T23:35:59.098Z,48.73
2019-02-10T23:38:29.561Z,46.43
2019-02-10T23:41:00.050Z,46.53
2019-02-10T23:43:30.516Z,45.33
2019-02-10T23:46:01.003Z,46.23
2019-02-10T23:48:31.468Z,45.27
2019-02-10T23:51:01.965Z,46.53
2019-02-10T23:53:32.435Z,46.77
2019-02-10T23:56:02.911Z,46.83
2019-02-10T23:58:33.362Z,47.83
